Time;durP1;ratioP1;P1;durP2;ratioP2;P2;SDS_P1;SDS_P2;PMS_P1;PMS_P2;Temp;Humidity;BMP_temperature;BMP_pressure;BME280_temperature;BME280_humidity;BME280_pressure;Samples;Min_cycle;Max_cycle;Signal;HPM_P1;HPM_P2
2022/02/02 00:04:29;;;;;;;17.52;7.63;;;21.10;29.60;;;;;;5090546;28;20075;-62
2022/02/02 00:07:10;;;;;;;20.27;7.47;;;21.00;30.00;;;;;;5091500;28;20104;-63
2022/02/02 00:09:37;;;;;;;22.38;8.35;;;21.00;30.40;;;;;;5088355;28;20075;-63
2022/02/02 00:14:50;;;;;;;24.65;8.40;;;20.90;29.50;;;;;;5092351;28;20068;-63
2022/02/02 00:17:31;;;;;;;19.83;7.78;;;20.80;29.80;;;;;;5094870;28;20068;-62
2022/02/02 00:22:56;;;;;;;25.98;8.55;;;20.70;31.20;;;;;;5016642;28;20082;-63
2022/02/02 00:25:33;;;;;;;23.65;7.88;;;20.60;31.70;;;;;;5028987;28;20110;-63
2022/02/02 00:28:02;;;;;;;26.33;9.38;;;20.60;31.90;;;;;;5014085;28;20123;-63
2022/02/02 00:30:34;;;;;;;28.65;9.80;;;20.60;32.90;;;;;;4997472;28;20106;-65
2022/02/02 00:35:32;;;;;;;32.53;9.18;;;20.40;34.70;;;;;;5012733;28;20074;-64
2022/02/02 00:37:59;;;;;;;28.65;9.02;;;20.30;34.20;;;;;;5027907;28;20066;-64
2022/02/02 00:40:25;;;;;;;22.10;8.00;;;20.20;34.00;;;;;;4996091;28;20761;-62
2022/02/02 00:42:52;;;;;;;18.67;7.95;;;20.20;33.10;;;;;;5029150;28;20431;-63
2022/02/02 00:45:18;;;;;;;;;;;20.10;32.80;;;;;;5013151;28;20133;-63
2022/02/02 00:47:49;;;;;;;21.95;7.05;;;20.00;33.40;;;;;;5028935;28;20348;-62
2022/02/02 00:50:16;;;;;;;19.50;6.95;;;19.90;33.50;;;;;;5013911;28;20073;-63
2022/02/02 00:52:43;;;;;;;23.08;7.22;;;19.80;34.00;;;;;;5012161;28;20158;-63
2022/02/02 00:55:09;;;;;;;27.52;6.78;;;19.70;34.20;;;;;;4996243;28;20086;-63
2022/02/02 00:57:36;;;;;;;16.90;5.70;;;19.60;34.40;;;;;;5012047;28;20148;-62
2022/02/02 01:00:04;;;;;;;14.25;5.90;;;19.50;34.10;;;;;;5078154;28;20102;-63
2022/02/02 01:02:30;;;;;;;19.23;6.38;;;19.40;33.80;;;;;;5104548;28;20077;-63
2022/02/02 01:04:56;;;;;;;;;;;19.40;33.80;;;;;;5057196;28;20068;-63
2022/02/02 01:11:19;;;;;;;21.35;5.30;;;19.20;32.50;;;;;;5067266;28;20092;-63
2022/02/02 01:20:51;;;;;;;21.80;5.55;;;18.90;31.90;;;;;;5089284;28;20073;-66
2022/02/02 01:28:35;;;;;;;24.13;6.40;;;18.80;32.00;;;;;;5087182;28;20090;-64
2022/02/02 01:31:02;;;;;;;22.17;6.38;;;18.80;32.20;;;;;;5086965;28;20370;-69
2022/02/02 01:33:29;;;;;;;23.92;5.57;;;18.80;32.10;;;;;;5086539;28;20096;-66
2022/02/02 01:35:56;;;;;;;20.48;6.30;;;18.80;31.80;;;;;;5089938;28;20071;-62
2022/02/02 01:38:26;;;;;;;23.95;7.25;;;18.80;31.40;;;;;;5086375;28;20160;-62
2022/02/02 01:40:58;;;;;;;13.50;6.40;;;18.70;31.50;;;;;;5086731;28;20082;-64
2022/02/02 01:43:36;;;;;;;13.57;6.50;;;18.70;31.70;;;;;;5089767;28;20661;-64
2022/02/02 01:46:08;;;;;;;25.60;7.28;;;18.70;32.00;;;;;;5087825;28;20076;-62
2022/02/02 01:48:47;;;;;;;26.77;6.72;;;18.60;32.20;;;;;;5086770;28;20183;-60
2022/02/02 01:56:10;;;;;;;26.52;7.38;;;18.50;34.00;;;;;;5088439;28;20080;-65
2022/02/02 02:01:22;;;;;;;22.90;7.20;;;18.50;34.90;;;;;;5086507;28;20087;-67
2022/02/02 02:03:48;;;;;;;23.45;7.05;;;18.50;35.60;;;;;;5087796;28;20156;-65
2022/02/02 02:06:18;;;;;;;29.48;7.30;;;18.50;36.10;;;;;;5088771;28;20427;-68
2022/02/02 02:08:45;;;;;;;30.77;7.22;;;18.40;36.50;;;;;;5088041;28;20126;-65
2022/02/02 02:11:18;;;;;;;23.25;7.82;;;18.40;37.00;;;;;;5086651;28;20176;-65
2022/02/02 02:16:21;;;;;;;28.48;7.72;;;18.30;38.30;;;;;;5087088;28;20565;-62
2022/02/02 02:18:47;;;;;;;34.50;8.27;;;18.20;38.70;;;;;;5069939;28;20473;-62
2022/02/02 02:21:16;;;;;;;25.80;7.80;;;18.20;39.00;;;;;;5088662;28;20073;-63
2022/02/02 02:23:48;;;;;;;36.35;9.77;;;18.10;39.50;;;;;;5088801;28;20111;-65
2022/02/02 02:26:22;;;;;;;26.83;8.32;;;18.10;39.90;;;;;;5091547;28;20486;-65
2022/02/02 02:34:25;;;;;;;26.30;8.13;;;17.80;40.80;;;;;;5088752;28;20091;-66
2022/02/02 03:58:44;;;;;;;35.47;11.25;;;16.40;41.60;;;;;;5047198;28;20192;-65
2022/02/02 04:01:46;;;;;;;31.48;11.15;;;16.40;41.60;;;;;;5033144;28;20598;-64
2022/02/02 04:04:18;;;;;;;40.60;11.68;;;16.40;41.60;;;;;;5056104;28;20673;-64
2022/02/02 04:07:09;;;;;;;24.73;10.23;;;16.40;41.20;;;;;;5086292;28;20088;-64
2022/02/02 04:09:36;;;;;;;42.05;10.75;;;16.40;41.20;;;;;;5085418;28;20837;-63
2022/02/02 04:54:14;;;;;;;20.58;7.28;;;16.30;34.90;;;;;;5084952;28;20590;-64
2022/02/02 05:06:25;;;;;;;26.15;7.75;;;16.00;35.70;;;;;;5103429;28;20643;-65
2022/02/02 05:09:05;;;;;;;17.90;6.75;;;15.90;36.00;;;;;;5094962;28;20080;-66
2022/02/02 05:12:13;;;;;;;19.58;7.10;;;15.90;36.30;;;;;;5089311;28;20132;-62
2022/02/02 05:42:50;;;;;;;41.08;11.65;;;15.00;40.50;;;;;;5031562;28;20089;-63
2022/02/02 05:53:26;;;;;;;29.98;10.82;;;14.80;41.40;;;;;;4969653;28;20106;-65
2022/02/02 05:55:53;;;;;;;27.80;10.57;;;14.70;41.60;;;;;;4968381;28;20102;-64
2022/02/02 05:58:30;;;;;;;27.13;11.73;;;14.60;41.70;;;;;;4969856;28;20473;-65
2022/02/02 06:00:59;;;;;;;41.72;11.82;;;14.60;41.70;;;;;;4973104;28;20071;-63
2022/02/02 06:03:52;;;;;;;29.92;10.10;;;14.50;41.30;;;;;;4969099;28;20095;-64
2022/02/02 06:06:22;;;;;;;42.88;10.30;;;14.50;41.40;;;;;;4945849;28;20079;-63
2022/02/02 06:08:51;;;;;;;36.55;9.63;;;14.40;41.10;;;;;;4921371;28;20118;-64
2022/02/02 06:11:20;;;;;;;29.45;10.13;;;14.40;40.70;;;;;;4968806;28;20551;-63
2022/02/02 06:13:55;;;;;;;24.40;9.60;;;14.40;40.30;;;;;;4953393;28;20504;-63
2022/02/02 06:16:23;;;;;;;27.38;9.48;;;14.40;40.40;;;;;;4990978;23;20121;-65
2022/02/02 06:18:55;;;;;;;29.85;9.10;;;14.40;39.90;;;;;;5050179;28;20543;-63
2022/02/02 06:21:31;;;;;;;31.08;9.55;;;14.30;39.80;;;;;;5047705;28;20108;-62
2022/02/02 06:24:06;;;;;;;29.95;9.50;;;14.30;39.60;;;;;;5048108;28;20199;-64
2022/02/02 06:26:34;;;;;;;23.30;8.65;;;14.20;39.30;;;;;;5049186;28;20077;-65
2022/02/02 06:29:04;;;;;;;30.13;8.80;;;14.20;39.00;;;;;;5030337;28;20135;-63
2022/02/02 06:31:35;;;;;;;21.90;7.10;;;14.20;38.50;;;;;;5048062;28;20482;-65
2022/02/02 06:34:03;;;;;;;22.48;7.28;;;14.10;38.00;;;;;;5047928;28;20069;-62
2022/02/02 06:36:32;;;;;;;22.65;5.60;;;14.20;38.10;;;;;;5047619;28;20157;-63
2022/02/02 06:38:59;;;;;;;14.13;6.00;;;14.20;38.10;;;;;;5048261;28;20578;-64
2022/02/02 06:41:28;;;;;;;28.85;6.18;;;14.30;37.80;;;;;;5048140;28;20082;-63
2022/02/02 06:43:55;;;;;;;19.70;5.53;;;14.20;37.70;;;;;;5048318;28;20081;-62
2022/02/02 06:46:27;;;;;;;22.67;5.53;;;14.20;37.20;;;;;;5031684;28;20101;-62
2022/02/02 06:48:54;;;;;;;14.70;5.10;;;14.20;37.20;;;;;;5047302;28;20127;-63
2022/02/02 06:51:35;;;;;;;29.02;5.82;;;14.20;37.10;;;;;;5031830;28;20216;-64
2022/02/02 06:54:21;;;;;;;16.77;5.25;;;14.20;36.70;;;;;;5048099;28;20085;-66
2022/02/02 06:57:15;;;;;;;19.85;5.40;;;14.20;36.60;;;;;;5048417;28;20081;-63
2022/02/02 07:02:52;;;;;;;20.70;5.10;;;14.00;36.30;;;;;;5046874;28;20152;-63
2022/02/02 07:08:06;;;;;;;15.45;5.10;;;14.00;35.80;;;;;;5049110;28;19979;-64
2022/02/02 07:13:35;;;;;;;16.10;4.20;;;13.90;36.20;;;;;;5068871;28;20152;-65
2022/02/02 07:19:09;;;;;;;18.23;5.88;;;13.90;36.50;;;;;;5068273;28;20075;-62
2022/02/02 07:37:35;;;;;;;19.13;6.30;;;13.60;38.10;;;;;;5067906;28;20123;-63
2022/02/02 07:40:05;;;;;;;24.23;6.75;;;13.60;38.20;;;;;;5066624;28;20077;-63
2022/02/02 07:42:32;;;;;;;33.72;8.05;;;13.50;38.70;;;;;;5066607;28;20581;-63
2022/02/02 07:45:09;;;;;;;23.55;6.93;;;13.40;39.40;;;;;;5068920;28;20084;-62
2022/02/02 07:47:44;;;;;;;26.55;7.35;;;13.30;39.90;;;;;;5067574;28;20099;-62
2022/02/02 07:50:12;;;;;;;22.35;6.10;;;13.10;40.40;;;;;;5053501;28;20131;-63
2022/02/02 07:52:42;;;;;;;23.75;7.25;;;13.00;41.10;;;;;;5070963;28;20767;-62
2022/02/02 07:55:11;;;;;;;24.38;7.93;;;12.90;41.10;;;;;;5071366;28;20069;-63
2022/02/02 07:57:40;;;;;;;28.55;7.32;;;12.90;40.90;;;;;;5069107;28;20077;-63
2022/02/02 08:00:16;;;;;;;29.20;7.38;;;12.90;41.10;;;;;;5069717;28;20081;-63
2022/02/02 08:02:58;;;;;;;35.05;8.35;;;12.80;40.90;;;;;;5070858;28;20561;-64
2022/02/02 08:05:27;;;;;;;22.88;6.60;;;12.80;40.90;;;;;;5056708;28;20088;-63
2022/02/02 08:10:40;;;;;;;33.92;7.13;;;12.80;40.60;;;;;;5071289;28;20091;-63
2022/02/02 08:13:20;;;;;;;28.40;6.93;;;12.90;40.30;;;;;;5053157;28;20536;-62
2022/02/02 08:15:56;;;;;;;20.48;6.35;;;12.80;39.90;;;;;;5070953;28;20158;-63
2022/02/02 08:18:22;;;;;;;19.27;6.15;;;12.80;40.10;;;;;;5071193;28;20115;-62
2022/02/02 08:20:48;;;;;;;;;;;12.90;39.70;;;;;;5042824;28;20172;-62
2022/02/02 08:23:15;;;;;;;21.38;6.25;;;12.90;39.30;;;;;;5070802;28;20422;-61
2022/02/02 08:25:43;;;;;;;31.88;6.65;;;12.90;39.50;;;;;;5053206;28;20080;-61
2022/02/02 08:28:10;;;;;;;26.90;6.25;;;12.80;39.50;;;;;;5070653;28;20561;-63
2022/02/02 08:30:36;;;;;;;21.50;5.53;;;12.80;39.50;;;;;;5070502;28;20126;-64
2022/02/02 08:33:07;;;;;;;12.77;4.47;;;12.80;39.50;;;;;;5070974;28;20686;-65
2022/02/02 08:35:43;;;;;;;17.38;3.90;;;12.90;39.20;;;;;;5070333;28;20499;-62
2022/02/02 08:40:55;;;;;;;13.35;3.58;;;13.00;38.60;;;;;;5069221;28;20669;-64
2022/02/02 08:43:30;;;;;;;13.68;3.47;;;13.00;38.80;;;;;;5054479;28;20080;-62
2022/02/02 08:46:03;;;;;;;15.45;3.30;;;13.00;38.60;;;;;;5070464;28;20171;-65
2022/02/02 08:48:29;;;;;;;16.33;3.38;;;13.00;38.70;;;;;;5071241;28;20557;-64
2022/02/02 08:51:01;;;;;;;13.98;2.88;;;13.00;38.80;;;;;;5072031;28;20603;-64
2022/02/02 08:53:34;;;;;;;15.63;2.35;;;13.00;39.10;;;;;;5069822;28;20080;-63
2022/02/02 08:57:03;;;;;;;15.15;2.42;;;13.00;39.40;;;;;;5054294;28;20156;-62
2022/02/02 08:59:03;;;;;;;5.38;1.70;;;12.90;39.70;;;;;;5068009;28;20442;-62
2022/02/02 09:01:33;;;;;;;12.65;2.00;;;13.00;40.10;;;;;;5068546;28;20167;-61
2022/02/02 09:06:45;;;;;;;8.02;1.70;;;12.90;40.90;;;;;;5054184;28;20080;-62
2022/02/02 09:09:15;;;;;;;8.15;2.33;;;12.90;41.40;;;;;;5069346;28;20077;-63
2022/02/02 09:25:17;;;;;;;10.02;2.10;;;12.70;43.20;;;;;;5069277;28;20091;-63
2022/02/02 09:35:45;;;;;;;7.30;1.55;;;12.60;43.90;;;;;;5068270;28;20511;-61
2022/02/02 09:38:11;;;;;;;;;;;12.50;44.10;;;;;;5050625;28;20077;-64
2022/02/02 09:43:19;;;;;;;8.02;1.88;;;12.50;44.20;;;;;;5052757;28;20085;-63
2022/02/02 09:45:56;;;;;;;8.90;1.55;;;12.40;44.10;;;;;;5069270;28;20077;-63
2022/02/02 09:48:29;;;;;;;9.55;1.80;;;12.40;44.50;;;;;;5053280;28;20085;-64
2022/02/02 09:51:02;;;;;;;10.77;1.52;;;12.30;44.60;;;;;;5052924;28;20092;-61
2022/02/02 09:53:44;;;;;;;9.18;1.40;;;12.20;44.80;;;;;;5068757;28;20537;-61
2022/02/02 09:56:42;;;;;;;11.88;1.92;;;12.20;44.80;;;;;;5068348;28;20450;-62
2022/02/02 10:02:30;;;;;;;14.52;2.08;;;12.20;44.60;;;;;;5069192;28;20583;-63
2022/02/02 10:05:16;;;;;;;11.63;1.92;;;12.10;44.50;;;;;;5068692;28;20106;-63
2022/02/02 10:15:20;;;;;;;9.45;1.58;;;12.00;44.00;;;;;;5069122;28;20077;-65
2022/02/02 10:18:06;;;;;;;7.13;1.50;;;12.00;44.20;;;;;;5068012;28;20162;-63
2022/02/02 10:20:34;;;;;;;6.57;1.52;;;12.00;44.30;;;;;;5069433;28;20157;-63
2022/02/02 10:23:01;;;;;;;10.98;1.80;;;11.90;44.20;;;;;;5067185;28;20476;-63
2022/02/02 10:25:37;;;;;;;9.90;1.77;;;11.90;44.30;;;;;;5067292;28;20126;-64
2022/02/02 10:28:07;;;;;;;8.40;1.55;;;11.90;43.50;;;;;;5066886;28;20080;-64
2022/02/02 10:30:34;;;;;;;14.02;1.77;;;11.80;43.60;;;;;;5067349;28;20069;-62
2022/02/02 10:33:02;;;;;;;12.18;1.98;;;11.80;43.00;;;;;;5069079;28;20073;-63
2022/02/02 10:35:32;;;;;;;6.20;1.42;;;11.70;43.20;;;;;;5067096;28;20069;-63
2022/02/02 10:38:00;;;;;;;7.65;1.58;;;11.70;41.60;;;;;;5069027;28;20156;-64
2022/02/02 10:41:02;;;;;;;12.57;1.90;;;11.70;41.20;;;;;;5067522;28;20512;-61
2022/02/02 10:43:40;;;;;;;4.07;1.60;;;11.70;41.10;;;;;;5066443;28;20549;-62
2022/02/02 10:46:52;;;;;;;11.68;1.80;;;11.70;41.80;;;;;;5050695;28;20143;-64
2022/02/02 10:49:43;;;;;;;5.25;1.55;;;11.70;42.30;;;;;;5069458;28;20069;-63
2022/02/02 10:52:25;;;;;;;5.70;1.40;;;11.60;42.90;;;;;;5069625;28;20468;-63
2022/02/02 11:00:32;;;;;;;10.77;1.70;;;11.50;44.40;;;;;;5069034;28;20065;-62
2022/02/02 11:08:28;;;;;;;3.70;1.48;;;11.30;45.10;;;;;;5053806;28;20129;-60
2022/02/02 11:10:58;;;;;;;12.10;1.98;;;11.20;44.60;;;;;;5051628;28;20096;-63
2022/02/02 11:13:27;;;;;;;11.52;2.13;;;11.20;44.60;;;;;;5066774;28;20069;-63
2022/02/02 11:15:58;;;;;;;8.27;1.70;;;11.20;44.40;;;;;;5068478;28;20182;-63
2022/02/02 11:18:27;;;;;;;11.43;1.70;;;11.20;44.50;;;;;;5068766;28;20069;-64
2022/02/02 11:20:54;;;;;;;12.88;2.00;;;11.10;44.30;;;;;;5050455;28;20166;-64
2022/02/02 11:23:22;;;;;;;13.10;2.13;;;11.10;44.20;;;;;;5068930;28;20865;-64
2022/02/02 11:25:55;;;;;;;7.60;1.75;;;11.00;44.10;;;;;;5070282;28;20168;-63
2022/02/02 11:28:28;;;;;;;8.05;1.50;;;11.00;44.20;;;;;;5070443;28;20101;-63
2022/02/02 11:31:16;;;;;;;16.52;2.05;;;11.00;44.10;;;;;;5053865;28;20510;-63
2022/02/02 11:33:44;;;;;;;;;;;10.90;44.60;;;;;;5056698;28;20758;-61
2022/02/02 11:36:26;;;;;;;18.45;2.15;;;10.80;45.00;;;;;;5070988;28;19957;-61
2022/02/02 11:38:55;;;;;;;5.20;1.33;;;10.80;45.70;;;;;;5070657;28;21430;-64
2022/02/02 11:41:35;;;;;;;16.73;1.88;;;10.80;44.80;;;;;;5070168;28;20115;-63
2022/02/02 11:49:46;;;;;;;16.42;1.88;;;10.60;45.60;;;;;;5073646;28;20083;-63
2022/02/02 11:52:44;;;;;;;7.70;1.73;;;10.60;42.50;;;;;;5070595;28;20065;-64
2022/02/02 11:55:16;;;;;;;13.40;1.33;;;10.70;41.60;;;;;;5069951;28;20079;-63
2022/02/02 11:58:16;;;;;;;6.63;1.27;;;10.70;41.90;;;;;;5071280;28;20561;-62
2022/02/02 12:19:03;;;;;;;10.80;0.95;;;11.10;33.50;;;;;;5070749;28;20100;-63
2022/02/02 12:47:47;;;;;;;7.22;0.90;;;10.60;33.90;;;;;;5070054;28;20470;-64
2022/02/02 12:59:36;;;;;;;11.40;0.90;;;10.40;34.20;;;;;;5016826;28;20082;-64
2022/02/02 13:02:10;;;;;;;8.98;1.08;;;10.30;34.90;;;;;;5028503;28;20224;-64
2022/02/02 13:04:39;;;;;;;11.07;1.38;;;10.20;35.80;;;;;;5012262;28;20200;-65
2022/02/02 13:07:15;;;;;;;20.73;1.25;;;10.10;35.60;;;;;;5028788;28;20067;-64
2022/02/02 13:09:44;;;;;;;8.43;1.13;;;10.00;35.80;;;;;;5011034;28;20155;-63
2022/02/02 13:13:16;;;;;;;9.48;1.15;;;10.00;35.60;;;;;;5028684;28;20106;-64
2022/02/02 13:16:07;;;;;;;6.97;1.05;;;9.90;35.80;;;;;;5022836;28;20102;-62
2022/02/02 13:18:27;;;;;;;11.57;0.90;;;9.90;36.50;;;;;;5012041;28;20094;-64
2022/02/02 13:21:15;;;;;;;6.75;1.08;;;9.80;36.90;;;;;;5028681;28;20104;-64
2022/02/02 13:27:16;;;;;;;8.48;1.00;;;9.70;37.80;;;;;;5028810;28;20109;-65
2022/02/02 13:43:49;;;;;;;12.85;1.23;;;9.50;36.00;;;;;;5053566;28;20159;-64
2022/02/02 13:54:45;;;;;;;12.05;1.17;;;9.40;36.90;;;;;;5068706;28;20487;-64
2022/02/02 14:00:26;;;;;;;8.00;1.13;;;9.20;37.90;;;;;;5069500;28;20076;-62
2022/02/02 14:11:30;;;;;;;16.75;1.58;;;8.70;40.60;;;;;;5068852;28;20099;-63
2022/02/02 14:33:11;;;;;;;18.83;2.05;;;8.50;40.90;;;;;;5067850;28;20119;-64
2022/02/02 14:35:37;;;;;;;;;;;8.40;39.80;;;;;;5052001;28;20081;-62
2022/02/02 14:38:05;;;;;;;26.95;1.95;;;8.50;37.90;;;;;;5067908;28;20407;-62
2022/02/02 14:40:57;;;;;;;20.23;2.50;;;8.60;37.00;;;;;;5067637;28;20073;-62
2022/02/02 14:43:33;;;;;;;26.73;2.42;;;8.60;37.50;;;;;;5066712;28;20105;-62
2022/02/02 14:46:02;;;;;;;17.27;2.00;;;8.60;37.50;;;;;;5067589;28;20104;-63
2022/02/02 14:48:33;;;;;;;10.60;1.83;;;8.70;37.30;;;;;;5069339;28;20085;-62
2022/02/02 15:28:22;;;;;;;28.35;1.80;;;9.90;31.80;;;;;;5067881;28;20446;-64
2022/02/02 15:33:23;;;;;;;55.38;3.40;;;10.00;32.00;;;;;;5067605;28;20069;-62
2022/02/02 15:36:00;;;;;;;30.13;1.90;;;10.10;32.20;;;;;;5067062;28;20092;-62
2022/02/02 15:38:28;;;;;;;28.80;2.75;;;10.20;32.10;;;;;;5067783;28;20183;-63
2022/02/02 15:41:03;;;;;;;23.95;2.55;;;10.30;31.60;;;;;;5068781;28;20069;-62
2022/02/02 15:43:47;;;;;;;31.17;2.17;;;10.50;30.90;;;;;;5052006;28;20527;-62
2022/02/02 16:02:19;;;;;;;22.52;1.60;;;11.30;31.40;;;;;;5067103;28;20081;-65
2022/02/02 16:04:45;;;;;;;14.93;1.40;;;11.40;31.60;;;;;;5067332;28;20076;-62
2022/02/02 16:07:22;;;;;;;30.00;1.80;;;11.60;29.10;;;;;;5066905;28;20519;-63
2022/02/02 16:09:54;;;;;;;23.42;1.67;;;11.80;28.60;;;;;;5068558;28;20137;-65
2022/02/02 16:15:21;;;;;;;26.67;1.23;;;12.10;28.90;;;;;;4997444;28;20082;-63
2022/02/02 16:18:06;;;;;;;18.75;1.88;;;12.20;29.50;;;;;;4992204;28;20150;-63
2022/02/02 16:31:50;;;;;;;11.55;1.52;;;12.70;30.80;;;;;;4963989;28;20194;-62
2022/02/02 16:37:02;;;;;;;23.42;1.30;;;13.10;31.40;;;;;;4957737;28;20450;-65
2022/02/02 16:39:29;;;;;;;18.98;1.55;;;13.20;31.10;;;;;;4967599;28;20114;-64
2022/02/02 16:44:40;;;;;;;9.63;1.75;;;13.80;28.70;;;;;;4951370;28;20612;-62
2022/02/02 16:47:07;;;;;;;9.30;1.20;;;14.20;26.80;;;;;;4950756;28;20585;-63
2022/02/02 16:49:33;;;;;;;16.23;1.38;;;14.50;25.40;;;;;;4953283;28;20083;-62
2022/02/02 16:51:59;;;;;;;;;;;14.80;24.80;;;;;;4986980;28;20589;-61
2022/02/02 16:54:31;;;;;;;10.38;1.00;;;15.20;24.40;;;;;;4993348;28;19973;-62
2022/02/02 16:57:16;;;;;;;11.15;1.27;;;15.60;23.90;;;;;;5034863;28;20194;-62
2022/02/02 17:25:09;;;;;;;33.13;3.95;;;17.50;21.20;;;;;;5070076;28;20146;-64
2022/02/02 17:43:26;;;;;;;29.38;2.50;;;19.10;18.90;;;;;;5015567;28;20284;-62
2022/02/02 18:20:48;;;;;;;85.60;5.25;;;21.10;15.70;;;;;;5069207;28;20069;-66
2022/02/02 18:23:26;;;;;;;54.38;4.22;;;22.00;15.20;;;;;;5066604;28;20458;-65
2022/02/02 18:28:43;;;;;;;59.20;3.67;;;20.70;15.70;;;;;;5067533;28;20128;-66
2022/02/02 18:42:36;;;;;;;32.33;2.55;;;20.30;15.40;;;;;;5069345;28;20154;-65
2022/02/02 18:47:04;;;;;;;28.10;2.15;;;22.10;15.20;;;;;;5069694;28;20123;-66
2022/02/02 19:02:22;;;;;;;19.15;2.08;;;22.70;13.40;;;;;;5067078;28;20202;-66
2022/02/02 19:07:51;;;;;;;29.90;2.63;;;23.00;13.60;;;;;;5069324;28;20138;-66
2022/02/02 19:40:32;;;;;;;47.08;3.65;;;18.30;15.20;;;;;;5068752;28;20076;-65
2022/02/02 20:02:13;;;;;;;26.58;2.30;;;17.70;15.70;;;;;;5072336;28;20100;-69
2022/02/02 20:04:47;;;;;;;35.92;1.85;;;17.60;15.80;;;;;;5070306;28;20099;-65
2022/02/02 20:07:45;;;;;;;21.92;1.48;;;17.80;16.00;;;;;;5071476;28;20112;-66
2022/02/02 20:12:46;;;;;;;36.90;2.15;;;17.80;15.60;;;;;;5071617;28;20152;-67
2022/02/02 20:15:14;;;;;;;18.65;1.92;;;17.80;15.60;;;;;;5072531;28;20061;-64
2022/02/02 20:17:42;;;;;;;49.40;2.67;;;17.80;15.80;;;;;;5059211;28;20109;-67
2022/02/02 20:20:22;;;;;;;23.55;1.98;;;17.70;15.50;;;;;;5074191;28;20596;-65
2022/02/02 20:22:50;;;;;;;42.67;2.70;;;18.00;15.70;;;;;;5071815;28;20077;-64
2022/02/02 20:25:18;;;;;;;70.13;3.90;;;18.20;15.80;;;;;;5069952;28;20469;-64
2022/02/02 20:27:54;;;;;;;93.05;4.93;;;18.00;15.90;;;;;;5070027;28;20158;-66
2022/02/02 20:30:21;;;;;;;67.10;3.58;;;18.20;15.70;;;;;;5071317;28;20121;-65
2022/02/02 20:32:47;;;;;;;80.80;4.72;;;17.90;15.10;;;;;;5070254;28;20081;-64
2022/02/02 20:35:14;;;;;;;104.63;5.15;;;17.80;15.60;;;;;;5070045;28;20080;-65
2022/02/02 20:37:40;;;;;;;58.65;3.33;;;17.90;16.10;;;;;;5054281;28;20080;-65
2022/02/02 20:40:08;;;;;;;45.88;3.50;;;17.80;15.80;;;;;;5053596;28;20078;-65
2022/02/02 20:45:35;;;;;;;67.47;4.45;;;17.80;15.80;;;;;;5070341;28;20096;-63
2022/02/02 21:04:19;;;;;;;121.95;7.68;;;17.70;16.00;;;;;;5070997;28;20531;-66
2022/02/02 21:09:43;;;;;;;71.03;4.30;;;17.80;16.50;;;;;;5071363;28;20496;-65
2022/02/02 21:14:46;;;;;;;119.03;6.47;;;18.00;16.70;;;;;;5071320;28;20069;-67
2022/02/02 21:17:21;;;;;;;82.33;5.67;;;18.00;16.40;;;;;;5069931;28;20112;-66
2022/02/02 21:20:09;;;;;;;86.25;5.40;;;17.80;15.80;;;;;;5072333;28;20766;-66
2022/02/02 21:22:47;;;;;;;115.60;6.70;;;17.90;16.10;;;;;;5070467;28;20158;-66
2022/02/02 21:28:02;;;;;;;45.08;3.15;;;17.90;15.70;;;;;;5072011;28;20134;-65
2022/02/02 21:30:32;;;;;;;43.75;3.03;;;17.70;15.80;;;;;;5071794;28;20131;-66
2022/02/02 21:32:59;;;;;;;48.83;4.28;;;17.60;15.80;;;;;;5071746;28;20072;-66
2022/02/02 21:35:26;;;;;;;63.35;4.35;;;17.80;16.20;;;;;;5072062;28;20156;-65
2022/02/02 21:38:01;;;;;;;67.65;4.50;;;17.80;15.70;;;;;;5070778;28;20423;-65
2022/02/02 21:40:30;;;;;;;57.58;3.83;;;18.00;16.20;;;;;;5072421;28;20143;-66
2022/02/02 21:42:58;;;;;;;56.55;3.25;;;18.30;15.70;;;;;;5070489;28;20091;-67
2022/02/02 21:45:30;;;;;;;40.53;2.83;;;17.90;15.50;;;;;;5071493;28;20170;-67
2022/02/02 21:47:58;;;;;;;26.85;2.45;;;17.90;16.00;;;;;;5070273;28;20085;-66
2022/02/02 21:50:30;;;;;;;25.88;1.80;;;17.60;15.30;;;;;;5071168;28;20099;-66
2022/02/02 21:52:57;;;;;;;36.78;2.90;;;17.70;15.80;;;;;;5070335;28;20073;-66
2022/02/02 21:55:23;;;;;;;77.00;3.42;;;17.80;16.00;;;;;;5070073;28;20097;-66
2022/02/02 21:57:51;;;;;;;37.25;2.40;;;17.70;15.40;;;;;;5070245;28;20077;-64
2022/02/02 22:00:18;;;;;;;28.80;2.45;;;17.60;15.40;;;;;;5069937;28;20159;-64
2022/02/02 22:02:44;;;;;;;35.17;2.88;;;17.60;16.00;;;;;;5071264;28;20136;-63
2022/02/02 22:05:11;;;;;;;39.85;4.07;;;17.70;15.70;;;;;;5070090;28;20092;-66
2022/02/02 22:07:38;;;;;;;62.13;4.15;;;17.50;15.50;;;;;;5067888;28;20085;-66
2022/02/02 22:10:07;;;;;;;58.47;3.63;;;17.50;15.80;;;;;;5069780;28;20570;-67
2022/02/02 22:12:36;;;;;;;40.30;3.50;;;17.40;15.90;;;;;;5069505;28;20080;-66
2022/02/02 22:15:07;;;;;;;52.28;3.38;;;17.40;15.50;;;;;;5069812;28;20127;-64
2022/02/02 22:17:34;;;;;;;74.28;4.63;;;17.30;15.70;;;;;;5068379;28;20150;-66
2022/02/02 22:20:06;;;;;;;33.05;3.70;;;17.40;15.90;;;;;;5069943;28;20069;-67
2022/02/02 22:22:33;;;;;;;53.42;3.95;;;17.30;16.40;;;;;;5070080;28;20152;-68
2022/02/02 22:25:00;;;;;;;62.67;4.40;;;17.40;16.10;;;;;;5068647;28;20079;-70
2022/02/02 22:27:27;;;;;;;53.95;3.70;;;17.50;16.00;;;;;;5069095;28;20126;-66
2022/02/02 22:29:54;;;;;;;49.92;3.35;;;17.50;15.70;;;;;;5068729;28;20069;-64
2022/02/02 22:32:21;;;;;;;52.55;3.75;;;17.50;15.80;;;;;;5068824;28;20077;-65
2022/02/02 22:34:47;;;;;;;39.25;3.75;;;17.50;15.80;;;;;;5069769;28;20073;-63
2022/02/02 22:37:14;;;;;;;42.50;3.78;;;17.50;15.90;;;;;;5068036;28;20439;-67
2022/02/02 22:39:42;;;;;;;39.03;2.85;;;17.50;16.20;;;;;;5069262;28;20069;-64
2022/02/02 22:42:11;;;;;;;29.25;3.25;;;17.50;15.70;;;;;;5070017;28;20138;-63
2022/02/02 22:44:37;;;;;;;34.75;2.63;;;17.70;16.00;;;;;;5052229;28;20077;-62
2022/02/02 22:47:07;;;;;;;36.13;3.05;;;17.70;16.50;;;;;;5069678;28;20187;-66
2022/02/02 22:49:36;;;;;;;28.25;2.90;;;17.80;16.30;;;;;;5052642;28;20093;-66
2022/02/02 22:52:03;;;;;;;34.40;2.67;;;17.60;16.30;;;;;;5069968;28;20065;-66
2022/02/02 22:54:29;;;;;;;78.03;4.40;;;17.50;16.90;;;;;;5036053;28;20450;-66
2022/02/02 22:56:55;;;;;;;;;;;17.60;16.80;;;;;;5069610;28;20069;-66
2022/02/02 22:59:22;;;;;;;39.13;3.28;;;17.40;16.70;;;;;;5067944;28;19964;-67
2022/02/02 23:01:55;;;;;;;40.63;2.78;;;17.40;16.60;;;;;;5068403;28;20100;-65
2022/02/02 23:04:23;;;;;;;41.80;3.00;;;17.50;16.70;;;;;;5038131;28;20099;-64
2022/02/02 23:06:49;;;;;;;32.63;2.65;;;17.60;16.80;;;;;;5052493;28;20093;-66
2022/02/02 23:09:16;;;;;;;33.28;2.78;;;17.40;16.80;;;;;;5069227;28;20091;-66
2022/02/02 23:11:42;;;;;;;21.88;2.33;;;17.30;16.90;;;;;;5070402;28;20091;-68
2022/02/02 23:14:20;;;;;;;42.10;3.47;;;17.20;16.70;;;;;;5051334;28;20477;-66
2022/02/02 23:16:48;;;;;;;43.97;3.22;;;17.10;16.60;;;;;;5037290;28;20119;-63
2022/02/02 23:19:14;;;;;;;32.40;2.42;;;17.20;17.00;;;;;;5070203;28;20080;-66
2022/02/02 23:21:44;;;;;;;33.47;2.80;;;17.30;17.30;;;;;;5069369;28;20091;-65
2022/02/02 23:24:13;;;;;;;28.35;2.20;;;17.40;17.30;;;;;;5056133;28;20111;-67
2022/02/02 23:26:41;;;;;;;37.15;2.65;;;17.50;17.60;;;;;;5073233;28;20069;-67
2022/02/02 23:29:08;;;;;;;34.42;3.35;;;17.50;17.30;;;;;;5072938;28;20105;-67
2022/02/02 23:31:36;;;;;;;28.30;2.70;;;17.30;16.80;;;;;;5074463;28;20084;-65
2022/02/02 23:34:02;;;;;;;42.58;3.08;;;17.00;16.70;;;;;;5072992;28;20065;-66
2022/02/02 23:36:29;;;;;;;34.42;2.80;;;16.90;16.90;;;;;;5072722;28;20069;-62
2022/02/02 23:38:56;;;;;;;37.40;3.20;;;16.70;17.50;;;;;;5073141;28;20439;-65
2022/02/02 23:42:10;;;;;;;40.35;3.47;;;16.70;17.30;;;;;;5073083;28;20086;-68
2022/02/02 23:44:24;;;;;;;37.33;2.53;;;16.70;17.20;;;;;;5072829;28;21466;-68
2022/02/02 23:46:53;;;;;;;;;;;16.60;17.10;;;;;;5073026;28;20126;-66
2022/02/02 23:49:30;;;;;;;30.80;2.78;;;16.70;17.50;;;;;;5072442;28;19973;-66
2022/02/02 23:52:00;;;;;;;33.70;2.58;;;16.70;17.60;;;;;;5073388;28;20069;-66
2022/02/02 23:54:29;;;;;;;25.92;2.80;;;16.60;17.30;;;;;;5073777;28;20076;-65
2022/02/02 23:57:12;;;;;;;31.23;2.38;;;16.40;17.70;;;;;;5072101;28;20092;-65
